KEDU

University Airport

Davis, California, USA
METAR KEDU 140435Z AUTO 00000KT 6SM CLR 07/M04 A3038 RMK AO1
Observed Flight Rules
Nov-14 @ 04:35 UTC (16 minutes ago) Visual Flight Rules
Visibility Clouds
6 miles
  • Clear skies
Temperatures Readings
Current 7°C / 45°F
Dewpoint -4°C / 25°F
Humidity 46%
Altimeter 30.38" Hg
Pressure 1029 hPa
Elevation 21
METAR KEDU 140435Z AUTO 00000KT 6SM CLR 07/M04 A3038 RMK AO1
Observed Flight Rules
Nov-14 @ 04:35 UTC
(16 minutes ago)
VFR
Clouds
  • Clear skies
Temperature Dewpoint
7°C / 45°F -4°C / 25°F
Humidity Altimeter Pressure
46% 30.38" Hg 1029 hPa